createdAt,value
2023-01-26T00:03:24.523Z,43.08
2023-01-26T00:07:25.874Z,42.77
2023-01-26T00:11:28.943Z,42.69
2023-01-26T00:15:33.101Z,42.51
2023-01-26T00:19:34.394Z,42.11
2023-01-26T00:23:36.160Z,42.18
2023-01-26T00:27:37.483Z,42.36
2023-01-26T00:31:38.813Z,42.53
2023-01-26T00:35:44.248Z,42.42
2023-01-26T00:39:45.596Z,41.81
2023-01-26T00:43:46.840Z,41.85
2023-01-26T00:47:48.511Z,42.21
2023-01-26T00:51:49.884Z,41.75
2023-01-26T00:55:53.325Z,42.13
2023-01-26T00:59:54.715Z,42.00
2023-01-26T01:03:56.051Z,41.34
2023-01-26T01:07:58.187Z,41.19
2023-01-26T01:11:59.781Z,41.37
2023-01-26T01:16:05.528Z,42.28
2023-01-26T01:20:09.272Z,41.98
2023-01-26T01:24:13.664Z,41.49
2023-01-26T01:28:15.087Z,41.28
2023-01-26T01:32:16.411Z,41.32
2023-01-26T01:36:17.907Z,42.11
2023-01-26T01:40:19.285Z,41.98
2023-01-26T01:44:23.532Z,41.77
2023-01-26T01:48:34.812Z,42.08
2023-01-26T01:52:36.961Z,41.52
2023-01-26T01:56:42.336Z,41.81
2023-01-26T02:00:43.919Z,41.06
2023-01-26T02:04:45.482Z,41.06
2023-01-26T02:08:50.714Z,41.07
2023-01-26T02:13:00.630Z,41.43
2023-01-26T02:17:02.081Z,41.27
2023-01-26T02:21:07.095Z,41.11
2023-01-26T02:25:39.644Z,42.12
2023-01-26T02:29:41.905Z,42.12
2023-01-26T02:33:43.684Z,41.41
2023-01-26T02:37:45.123Z,41.59
2023-01-26T02:42:06.789Z,41.32
2023-01-26T02:46:08.173Z,41.50
2023-01-26T02:50:10.830Z,40.66
2023-01-26T02:54:32.320Z,41.65
2023-01-26T02:58:33.908Z,41.61
2023-01-26T03:02:35.483Z,40.95
2023-01-26T03:06:36.871Z,41.18
2023-01-26T03:10:38.917Z,41.46
2023-01-26T03:14:40.349Z,41.68
2023-01-26T03:19:00.523Z,41.87
2023-01-26T03:23:20.360Z,42.07
2023-01-26T03:27:27.402Z,42.06
2023-01-26T03:31:28.795Z,42.52
2023-01-26T03:35:30.407Z,41.92
2023-01-26T03:39:50.277Z,42.61
2023-01-26T03:44:10.554Z,42.27
2023-01-26T03:48:31.422Z,42.57
2023-01-26T03:52:51.365Z,43.05
2023-01-26T03:56:53.441Z,42.79
2023-01-26T04:00:54.819Z,43.03
2023-01-26T04:05:15.092Z,43.32
2023-01-26T04:09:16.498Z,43.60
2023-01-26T04:13:41.635Z,43.35
2023-01-26T04:18:01.465Z,42.95
2023-01-26T04:22:02.749Z,42.90
2023-01-26T04:26:04.305Z,42.69
2023-01-26T04:30:06.756Z,42.59
2023-01-26T04:34:13.646Z,42.35
2023-01-26T04:38:14.941Z,42.72
2023-01-26T04:42:16.362Z,42.05
2023-01-26T04:46:17.725Z,42.60
2023-01-26T04:50:19.021Z,42.21
2023-01-26T04:54:20.447Z,43.07
2023-01-26T04:58:22.193Z,43.28
2023-01-26T05:02:23.535Z,42.90
2023-01-26T05:06:24.788Z,42.96
2023-01-26T05:10:26.148Z,43.07
2023-01-26T05:14:27.487Z,42.64
2023-01-26T05:18:29.253Z,42.59
2023-01-26T05:22:30.900Z,42.96
2023-01-26T05:26:32.243Z,43.08
2023-01-26T05:30:33.556Z,43.26
2023-01-26T05:34:34.874Z,42.62
2023-01-26T05:38:36.210Z,44.67
2023-01-26T05:42:37.865Z,43.37
2023-01-26T05:46:39.193Z,42.61
2023-01-26T05:50:40.613Z,43.19
2023-01-26T05:54:42.213Z,42.84
2023-01-26T05:58:43.545Z,42.78
2023-01-26T06:02:46.846Z,43.12
2023-01-26T06:06:53.135Z,42.48
2023-01-26T06:10:59.562Z,43.31
2023-01-26T06:15:01.877Z,42.95
2023-01-26T06:19:03.300Z,43.04
2023-01-26T06:23:05.500Z,43.18
2023-01-26T06:27:11.760Z,42.84
2023-01-26T06:31:13.202Z,43.04
2023-01-26T06:35:14.736Z,43.25
2023-01-26T06:39:17.074Z,42.87
2023-01-26T06:43:18.393Z,43.55
2023-01-26T06:47:19.665Z,43.46
2023-01-26T06:51:21.068Z,43.46
2023-01-26T06:55:26.878Z,43.77
2023-01-26T06:59:28.219Z,44.28
2023-01-26T07:03:29.559Z,43.27
2023-01-26T07:07:30.929Z,43.57
2023-01-26T07:11:32.746Z,43.91
2023-01-26T07:15:34.203Z,43.36
2023-01-26T07:19:35.615Z,43.59
2023-01-26T07:23:37.000Z,43.40
2023-01-26T07:27:38.423Z,43.78
2023-01-26T07:31:41.291Z,43.68
2023-01-26T07:35:42.751Z,43.50
2023-01-26T07:39:44.123Z,43.42
2023-01-26T07:43:45.639Z,43.82
2023-01-26T07:47:48.011Z,44.07
2023-01-26T07:51:49.480Z,43.79
2023-01-26T07:55:50.913Z,43.29
2023-01-26T07:59:52.270Z,43.61
2023-01-26T08:03:53.877Z,43.18
2023-01-26T08:08:01.646Z,43.39
2023-01-26T08:12:03.030Z,43.05
2023-01-26T08:16:11.984Z,42.88
2023-01-26T08:20:14.190Z,42.97
2023-01-26T08:24:15.695Z,43.03
2023-01-26T08:28:17.017Z,43.08
2023-01-26T08:32:18.451Z,42.70
2023-01-26T08:36:22.568Z,42.98
2023-01-26T08:40:24.826Z,43.34
2023-01-26T08:44:26.157Z,42.87
2023-01-26T08:48:28.378Z,42.66
2023-01-26T08:52:29.683Z,43.00
2023-01-26T08:56:31.103Z,42.29
2023-01-26T09:00:33.151Z,42.11
2023-01-26T09:04:34.589Z,41.53
2023-01-26T09:08:36.095Z,42.09
2023-01-26T09:12:39.483Z,41.88
2023-01-26T09:16:42.170Z,43.08
2023-01-26T09:20:44.035Z,41.95
2023-01-26T09:24:45.325Z,41.72
2023-01-26T09:28:50.389Z,42.86
2023-01-26T09:32:51.744Z,41.71
2023-01-26T09:36:53.108Z,42.25
2023-01-26T09:41:11.665Z,42.01
2023-01-26T09:45:13.437Z,41.84
2023-01-26T09:49:49.178Z,42.61
2023-01-26T09:54:21.287Z,42.86
2023-01-26T09:58:33.846Z,42.64
2023-01-26T10:02:56.397Z,42.15
2023-01-26T10:06:58.936Z,42.22
2023-01-26T10:11:05.425Z,42.28
2023-01-26T10:15:26.635Z,43.56
2023-01-26T10:19:42.417Z,42.94
2023-01-26T10:23:48.576Z,42.60
2023-01-26T10:27:50.639Z,42.50
2023-01-26T10:31:51.924Z,42.30
2023-01-26T10:35:54.134Z,42.74
2023-01-26T10:40:04.605Z,43.11
2023-01-26T10:44:15.288Z,43.11
2023-01-26T10:48:24.072Z,42.30
2023-01-26T10:52:25.412Z,42.94
2023-01-26T10:56:26.836Z,42.02
2023-01-26T11:00:31.641Z,42.71
2023-01-26T11:04:33.100Z,43.18
2023-01-26T11:08:39.198Z,42.28
2023-01-26T11:12:40.507Z,42.17
2023-01-26T11:16:53.744Z,42.30
2023-01-26T11:21:03.719Z,42.38
2023-01-26T11:25:34.672Z,43.04
2023-01-26T11:29:52.346Z,43.04
2023-01-26T11:34:21.605Z,43.03
2023-01-26T11:38:41.908Z,43.76
2023-01-26T11:43:13.454Z,43.39
2023-01-26T11:48:05.789Z,43.24
2023-01-26T11:52:36.045Z,43.66
2023-01-26T11:56:50.044Z,42.67
2023-01-26T12:01:00.424Z,42.94
2023-01-26T12:05:52.320Z,42.52
2023-01-26T12:09:54.039Z,42.76
2023-01-26T12:14:18.643Z,42.77
2023-01-26T12:18:48.909Z,43.30
2023-01-26T12:23:08.894Z,43.50
2023-01-26T12:27:40.744Z,43.58
2023-01-26T12:31:58.034Z,43.09
2023-01-26T12:36:36.879Z,43.35
2023-01-26T12:40:56.086Z,44.41
2023-01-26T12:45:02.467Z,43.25
2023-01-26T12:49:13.362Z,43.86
2023-01-26T12:53:18.361Z,42.80
2023-01-26T12:57:25.124Z,43.15
2023-01-26T13:01:38.053Z,42.39
2023-01-26T13:05:55.538Z,43.41
2023-01-26T13:10:18.659Z,42.77
2023-01-26T13:14:32.141Z,42.92
2023-01-26T13:18:49.641Z,42.68
2023-01-26T13:22:52.128Z,42.88
2023-01-26T13:27:02.253Z,42.73
2023-01-26T13:31:06.779Z,42.57
2023-01-26T13:35:13.960Z,42.83
2023-01-26T13:39:29.041Z,42.63
2023-01-26T13:43:41.717Z,43.82
2023-01-26T13:47:48.774Z,43.05
2023-01-26T13:51:50.748Z,42.84
2023-01-26T13:55:56.922Z,43.43
2023-01-26T14:00:00.420Z,43.34
2023-01-26T14:04:12.366Z,43.14
2023-01-26T14:08:16.053Z,44.27
2023-01-26T14:12:34.559Z,44.17
2023-01-26T14:16:37.461Z,44.00
2023-01-26T14:20:39.830Z,43.33
2023-01-26T14:24:43.005Z,44.24
2023-01-26T14:28:44.456Z,44.69
2023-01-26T14:32:47.673Z,43.83
2023-01-26T14:37:04.814Z,43.77
2023-01-26T14:41:16.496Z,44.17
2023-01-26T14:45:24.199Z,44.03
2023-01-26T14:49:47.849Z,44.52
2023-01-26T14:53:56.653Z,44.08
2023-01-26T14:58:01.028Z,44.20
2023-01-26T15:02:22.150Z,44.50
2023-01-26T15:06:28.320Z,44.39
2023-01-26T15:10:34.498Z,44.56
2023-01-26T15:14:35.778Z,44.19
2023-01-26T15:18:37.211Z,44.55
2023-01-26T15:22:38.582Z,44.63
2023-01-26T15:26:40.366Z,44.35
2023-01-26T15:30:48.750Z,45.03
2023-01-26T15:35:07.371Z,44.87
2023-01-26T15:39:16.983Z,44.77
2023-01-26T15:43:19.999Z,44.45
2023-01-26T15:47:21.422Z,44.48
2023-01-26T15:51:22.812Z,44.90
2023-01-26T15:55:27.519Z,45.11
2023-01-26T15:59:28.866Z,44.00
2023-01-26T16:03:30.264Z,45.13
2023-01-26T16:07:31.637Z,45.00
2023-01-26T16:11:37.042Z,46.67
2023-01-26T16:15:52.401Z,45.74
2023-01-26T16:19:53.906Z,45.22
2023-01-26T16:23:55.281Z,45.07
2023-01-26T16:27:58.986Z,45.90
2023-01-26T16:32:00.742Z,44.59
2023-01-26T16:36:02.109Z,44.72
2023-01-26T16:40:03.679Z,44.25
2023-01-26T16:44:14.250Z,45.36
2023-01-26T16:48:16.709Z,44.71
2023-01-26T16:52:18.128Z,45.40
2023-01-26T16:56:20.193Z,45.79
2023-01-26T17:00:21.707Z,45.67
2023-01-26T17:04:23.122Z,45.54
2023-01-26T17:08:24.586Z,44.91
2023-01-26T17:12:27.352Z,45.98
2023-01-26T17:16:35.010Z,45.58
2023-01-26T17:20:36.511Z,46.07
2023-01-26T17:24:37.883Z,45.45
2023-01-26T17:28:39.361Z,45.50
2023-01-26T17:32:41.996Z,45.53
2023-01-26T17:36:45.797Z,46.17
2023-01-26T17:40:54.873Z,45.50
2023-01-26T17:44:57.787Z,45.96
2023-01-26T17:48:59.084Z,45.73
2023-01-26T17:53:00.427Z,46.12
2023-01-26T17:57:01.865Z,45.14
2023-01-26T18:01:04.491Z,45.20
2023-01-26T18:05:06.540Z,45.07
2023-01-26T18:09:08.008Z,45.05
2023-01-26T18:13:09.363Z,45.29
2023-01-26T18:17:10.788Z,44.41
2023-01-26T18:21:15.414Z,45.44
2023-01-26T18:25:20.421Z,45.29
2023-01-26T18:29:21.790Z,45.44
2023-01-26T18:33:23.232Z,45.01
2023-01-26T18:37:24.573Z,45.10
2023-01-26T18:41:27.640Z,45.70
2023-01-26T18:45:28.934Z,45.51
2023-01-26T18:49:30.291Z,45.91
2023-01-26T18:53:31.646Z,45.91
2023-01-26T18:57:32.974Z,46.20
2023-01-26T19:01:34.347Z,46.28
2023-01-26T19:05:35.691Z,45.94
2023-01-26T19:09:37.152Z,46.36
2023-01-26T19:13:42.083Z,46.22
2023-01-26T19:17:44.871Z,46.01
2023-01-26T19:21:46.350Z,46.60
2023-01-26T19:25:47.805Z,46.22
2023-01-26T19:29:51.555Z,46.18
2023-01-26T19:33:54.598Z,46.22
2023-01-26T19:37:56.818Z,46.65
2023-01-26T19:41:58.205Z,46.44
2023-01-26T19:45:59.919Z,46.15
2023-01-26T19:50:01.324Z,46.53
2023-01-26T19:54:02.713Z,46.56
2023-01-26T19:58:04.159Z,47.03
2023-01-26T20:02:06.031Z,46.82
2023-01-26T20:06:14.957Z,46.74
2023-01-26T20:10:16.638Z,46.67
2023-01-26T20:14:18.211Z,46.89
2023-01-26T20:18:19.699Z,46.44
2023-01-26T20:22:21.204Z,46.69
2023-01-26T20:26:24.423Z,47.10
2023-01-26T20:30:25.868Z,47.44
2023-01-26T20:34:27.557Z,49.35
2023-01-26T20:38:29.072Z,47.16
2023-01-26T20:42:30.453Z,47.05
2023-01-26T20:46:38.839Z,47.09
2023-01-26T20:50:41.003Z,47.33
2023-01-26T20:54:43.391Z,47.00
2023-01-26T20:58:44.764Z,46.93
2023-01-26T21:02:46.191Z,46.65
2023-01-26T21:06:47.567Z,47.11
2023-01-26T21:10:49.637Z,46.86
2023-01-26T21:14:50.950Z,46.95
2023-01-26T21:18:52.631Z,46.88
2023-01-26T21:22:55.120Z,47.48
2023-01-26T21:26:56.440Z,46.87
2023-01-26T21:31:10.282Z,46.83
2023-01-26T21:35:13.901Z,46.78
2023-01-26T21:39:15.344Z,47.46
2023-01-26T21:43:16.655Z,47.04
2023-01-26T21:47:17.933Z,47.08
2023-01-26T21:51:52.487Z,47.24
2023-01-26T21:55:53.812Z,47.54
2023-01-26T21:59:55.649Z,47.34
2023-01-26T22:03:59.571Z,46.84
2023-01-26T22:08:01.002Z,46.87
2023-01-26T22:12:02.311Z,47.10
2023-01-26T22:16:04.679Z,47.33
2023-01-26T22:20:06.657Z,46.93
2023-01-26T22:24:11.788Z,46.73
2023-01-26T22:28:13.904Z,47.09
2023-01-26T22:32:15.258Z,46.88
2023-01-26T22:36:17.244Z,47.17
2023-01-26T22:40:19.077Z,46.74
2023-01-26T22:44:20.452Z,47.27
2023-01-26T22:48:21.836Z,47.19
2023-01-26T22:52:23.318Z,47.22
2023-01-26T22:56:25.552Z,47.38
2023-01-26T23:00:26.959Z,46.82
2023-01-26T23:04:28.618Z,46.09
2023-01-26T23:08:31.083Z,47.23
2023-01-26T23:12:32.494Z,47.15
2023-01-26T23:16:33.966Z,46.57
2023-01-26T23:20:35.440Z,46.49
2023-01-26T23:24:36.759Z,47.32
2023-01-26T23:28:40.776Z,46.78
2023-01-26T23:32:42.193Z,47.00
2023-01-26T23:36:43.658Z,47.20
2023-01-26T23:40:47.643Z,46.08
2023-01-26T23:44:49.056Z,46.04
2023-01-26T23:48:50.408Z,45.56
2023-01-26T23:52:51.796Z,45.52
2023-01-26T23:56:53.148Z,47.20
